グアム の空港の天気 - METARとTAF

グアム国際空港 ( PGUM / GUM ) - グアム ハガニア
飛行場実況気象(Metar)
観測時間04/20 02:54 ChST (04/19 16:54 UTC)
風向・風速東北東 5m/s
視程10km以上
天気現象
少しの雲 雲底高度 730m
気温27.2℃
湿度77%
気圧1010hPa
METARPGUM 191654Z 07010KT 10SM FEW024 27/23 A2985 RMK AO2 SLP100 T02720228
過去の天気等 Google飛行場航空写真 Wunderground天気予報

過去48時間のMETAR

飛行場予報(TAF)
発表時間: 4/19 21:20 ChST (4/19 11:20 UTC)
予報対象時間: 19日22時 ChST ~ 21日4時 ChST
風向・風速東 6m/s
視程10km以上
全天の4割程度の雲 雲底高度 760m
PGUM 191120Z 1912/2018 08011KT P6SM SCT025